Time;durP1;ratioP1;P1;durP2;ratioP2;P2;SDS_P1;SDS_P2;PMS_P1;PMS_P2;Temp;Humidity;BMP_temperature;BMP_pressure;BME280_temperature;BME280_humidity;BME280_pressure;Samples;Min_cycle;Max_cycle;Signal;HPM_P1;HPM_P2
2022/08/20 00:00:17;;;;;;;2.87;2.67;;;24.80;61.30;;;;;;5086799;28;20496;-47
2022/08/20 00:02:50;;;;;;;2.70;2.50;;;24.70;61.40;;;;;;5083869;28;20455;-47
2022/08/20 00:05:22;;;;;;;2.93;2.30;;;24.70;61.50;;;;;;5064212;28;20461;-46
2022/08/20 00:07:49;;;;;;;2.60;2.23;;;24.70;61.70;;;;;;5083941;28;20781;-47
2022/08/20 00:10:16;;;;;;;2.87;2.67;;;24.60;61.80;;;;;;5082644;28;20521;-47
2022/08/20 00:12:45;;;;;;;2.53;2.33;;;24.70;61.90;;;;;;5068021;28;20467;-47
2022/08/20 00:15:13;;;;;;;2.67;2.47;;;24.60;61.90;;;;;;5086413;28;20460;-47
2022/08/20 00:17:40;;;;;;;3.30;2.23;;;24.60;62.00;;;;;;5085860;28;20460;-47
2022/08/20 00:20:12;;;;;;;3.10;2.13;;;24.50;62.30;;;;;;5084024;28;20484;-47
2022/08/20 00:22:39;;;;;;;3.73;2.87;;;24.50;62.40;;;;;;5085888;28;20460;-47
2022/08/20 00:25:07;;;;;;;4.33;2.70;;;24.50;62.60;;;;;;5085643;28;20463;-47
2022/08/20 00:27:34;;;;;;;3.20;2.93;;;24.40;62.80;;;;;;5085771;28;20460;-47
2022/08/20 00:30:01;;;;;;;5.27;2.80;;;24.40;62.90;;;;;;5086027;28;20463;-47
2022/08/20 00:32:28;;;;;;;3.70;2.47;;;24.40;62.80;;;;;;5083718;28;20463;-47
2022/08/20 00:34:55;;;;;;;3.50;2.37;;;24.40;62.90;;;;;;5065933;28;20472;-46
2022/08/20 00:37:21;;;;;;;2.80;2.60;;;24.40;63.00;;;;;;5064907;28;20836;-47
2022/08/20 00:39:48;;;;;;;3.73;2.80;;;24.40;63.00;;;;;;5084874;28;20484;-47
2022/08/20 00:42:15;;;;;;;2.70;2.50;;;24.30;63.30;;;;;;5068708;28;20466;-46
2022/08/20 00:44:46;;;;;;;3.77;2.57;;;24.40;63.30;;;;;;5084685;28;20937;-47
2022/08/20 00:47:12;;;;;;;3.10;2.80;;;24.30;63.40;;;;;;5067606;28;20459;-46
2022/08/20 00:49:39;;;;;;;5.13;2.53;;;24.20;63.80;;;;;;5080555;28;20801;-47
2022/08/20 00:52:12;;;;;;;3.10;2.80;;;24.20;63.80;;;;;;5084050;28;20486;-47
2022/08/20 00:54:47;;;;;;;3.13;2.70;;;24.20;63.80;;;;;;5081958;28;20836;-47
2022/08/20 00:57:26;;;;;;;3.47;2.60;;;24.20;64.00;;;;;;5087108;28;20475;-47
2022/08/20 01:00:18;;;;;;;2.80;2.60;;;24.20;64.10;;;;;;5082071;28;20484;-46
2022/08/20 01:02:46;;;;;;;2.30;2.10;;;24.20;64.30;;;;;;5067218;28;20491;-47
2022/08/20 01:05:13;;;;;;;3.67;3.30;;;24.10;64.40;;;;;;5084041;28;20456;-47
2022/08/20 01:07:41;;;;;;;3.90;2.77;;;24.10;64.50;;;;;;5081820;28;20468;-47
2022/08/20 01:10:12;;;;;;;3.00;2.70;;;24.10;64.70;;;;;;5066822;28;20830;-46
2022/08/20 01:12:46;;;;;;;2.50;2.30;;;24.10;64.80;;;;;;5085021;28;20468;-46
2022/08/20 01:15:22;;;;;;;2.63;2.40;;;24.10;64.80;;;;;;5062128;28;20456;-46
2022/08/20 01:17:59;;;;;;;2.40;2.20;;;24.00;65.10;;;;;;5078198;28;20477;-46
2022/08/20 01:20:32;;;;;;;2.70;2.43;;;24.10;65.10;;;;;;5065942;28;21001;-47
2022/08/20 01:23:29;;;;;;;1.93;1.83;;;24.10;65.20;;;;;;5089769;28;20463;-46
2022/08/20 01:26:21;;;;;;;2.70;2.47;;;24.10;65.00;;;;;;5087345;28;20555;-46
2022/08/20 01:29:09;;;;;;;3.03;2.47;;;24.00;65.40;;;;;;5058173;28;22473;-47
2022/08/20 01:31:38;;;;;;;3.33;2.33;;;24.00;65.30;;;;;;5083129;28;20443;-46
2022/08/20 01:34:07;;;;;;;1.93;1.83;;;24.00;65.40;;;;;;5083809;28;20454;-46
2022/08/20 01:36:43;;;;;;;2.30;2.10;;;24.00;65.50;;;;;;5078470;28;20460;-47
2022/08/20 01:39:15;;;;;;;2.20;2.00;;;23.90;65.70;;;;;;5084133;28;20828;-46
2022/08/20 01:42:00;;;;;;;3.30;2.43;;;23.90;65.70;;;;;;5084270;28;20456;-47
2022/08/20 01:44:30;;;;;;;2.63;2.30;;;23.90;65.80;;;;;;5052494;28;20462;-47
2022/08/20 01:47:07;;;;;;;3.10;2.00;;;23.90;65.90;;;;;;5082009;28;20456;-47
2022/08/20 01:49:34;;;;;;;2.07;1.97;;;23.90;65.90;;;;;;5062505;28;20479;-46
2022/08/20 01:52:08;;;;;;;2.70;2.50;;;23.90;66.00;;;;;;5079702;28;20969;-47
2022/08/20 01:54:35;;;;;;;2.50;2.30;;;23.80;66.10;;;;;;5081027;28;20463;-47
2022/08/20 01:57:10;;;;;;;3.60;2.13;;;23.80;66.20;;;;;;5078969;28;20930;-46
2022/08/20 01:59:38;;;;;;;3.30;2.00;;;23.80;66.20;;;;;;5076946;28;20483;-47
2022/08/20 02:02:06;;;;;;;2.17;1.97;;;23.80;66.30;;;;;;5079756;28;20463;-46
2022/08/20 02:04:34;;;;;;;2.50;2.17;;;23.80;66.40;;;;;;5082664;28;21163;-47
2022/08/20 02:07:03;;;;;;;2.87;2.37;;;23.80;66.40;;;;;;5062386;28;20464;-46
2022/08/20 02:09:35;;;;;;;2.10;1.90;;;23.80;66.40;;;;;;5067218;28;20766;-47
2022/08/20 02:12:04;;;;;;;3.00;2.70;;;23.80;66.40;;;;;;5085297;28;20467;-47
2022/08/20 02:14:31;;;;;;;2.20;2.00;;;23.70;66.40;;;;;;5081410;28;20999;-47
2022/08/20 02:16:59;;;;;;;1.90;1.70;;;23.70;66.50;;;;;;5082923;28;20455;-47
2022/08/20 02:19:56;;;;;;;1.87;1.77;;;23.70;66.60;;;;;;5084045;28;20490;-47
2022/08/20 02:22:28;;;;;;;2.07;1.97;;;23.70;66.60;;;;;;5080795;28;20471;-47
2022/08/20 02:24:55;;;;;;;1.93;1.70;;;23.70;66.70;;;;;;5085901;28;20831;-47
2022/08/20 02:27:22;;;;;;;3.37;2.53;;;23.70;66.80;;;;;;5085109;28;20463;-47
2022/08/20 02:29:50;;;;;;;2.77;2.50;;;23.70;67.10;;;;;;5066986;28;20930;-47
2022/08/20 02:32:18;;;;;;;2.93;2.43;;;23.60;67.10;;;;;;5065791;28;20830;-47
2022/08/20 02:35:02;;;;;;;2.40;2.23;;;23.60;67.40;;;;;;5072150;28;20466;-47
2022/08/20 02:37:30;;;;;;;2.37;2.17;;;23.60;67.50;;;;;;5084875;28;20468;-47
2022/08/20 02:39:56;;;;;;;3.10;2.30;;;23.60;67.50;;;;;;5088309;28;20496;-47
2022/08/20 02:42:23;;;;;;;2.17;1.80;;;23.60;67.50;;;;;;5069750;28;20443;-47
2022/08/20 02:44:50;;;;;;;1.90;1.77;;;23.60;67.50;;;;;;5090355;28;20452;-47
2022/08/20 02:47:17;;;;;;;2.87;2.07;;;23.60;67.50;;;;;;5070928;28;20455;-47
2022/08/20 02:49:43;;;;;;;2.83;2.13;;;23.60;67.50;;;;;;5070706;28;20459;-47
2022/08/20 02:52:10;;;;;;;2.43;2.13;;;23.50;67.60;;;;;;5085529;28;20459;-47
2022/08/20 02:54:37;;;;;;;6.57;2.50;;;23.50;67.60;;;;;;5084988;28;20495;-50
2022/08/20 02:57:04;;;;;;;5.63;1.77;;;23.50;67.70;;;;;;5089339;28;20467;-50
2022/08/20 02:59:32;;;;;;;2.00;1.87;;;23.50;67.60;;;;;;5087175;28;20474;-50
2022/08/20 03:01:59;;;;;;;2.00;1.80;;;23.50;67.60;;;;;;5093206;28;20463;-50
2022/08/20 03:04:30;;;;;;;3.53;2.40;;;23.50;67.60;;;;;;5088009;28;20456;-50
2022/08/20 03:06:57;;;;;;;3.27;2.43;;;23.50;67.60;;;;;;5084020;28;20468;-50
2022/08/20 03:09:24;;;;;;;2.00;1.90;;;23.50;67.60;;;;;;5086780;28;20488;-50
2022/08/20 03:11:51;;;;;;;4.50;2.30;;;23.50;67.60;;;;;;5088516;28;20485;-50
2022/08/20 03:14:18;;;;;;;1.97;1.87;;;23.50;67.60;;;;;;5060584;28;20513;-50
2022/08/20 03:16:45;;;;;;;2.30;1.80;;;23.50;67.70;;;;;;5084764;28;20463;-50
2022/08/20 03:19:12;;;;;;;2.70;2.23;;;23.50;67.80;;;;;;5086059;28;20995;-50
2022/08/20 03:21:39;;;;;;;2.03;1.93;;;23.50;68.00;;;;;;5087336;28;20488;-50
2022/08/20 03:24:06;;;;;;;2.33;1.77;;;23.50;68.10;;;;;;5086314;28;20466;-50
2022/08/20 03:26:33;;;;;;;4.20;2.17;;;23.50;68.10;;;;;;5068114;28;20452;-50
2022/08/20 03:29:00;;;;;;;5.47;1.37;;;23.50;68.10;;;;;;5069590;28;20452;-50
2022/08/20 03:31:28;;;;;;;2.20;2.03;;;23.50;68.10;;;;;;5087717;28;20454;-50
2022/08/20 03:33:55;;;;;;;2.40;2.20;;;23.50;68.10;;;;;;5061224;28;20467;-50
2022/08/20 03:36:23;;;;;;;2.60;2.33;;;23.50;68.10;;;;;;5062531;28;20460;-50
2022/08/20 03:38:56;;;;;;;2.30;1.80;;;23.50;68.20;;;;;;5082264;28;20557;-50
2022/08/20 03:41:23;;;;;;;1.67;1.57;;;23.50;68.10;;;;;;5078556;28;20944;-50
2022/08/20 03:43:51;;;;;;;3.20;2.13;;;23.40;68.20;;;;;;5068552;28;20460;-50
2022/08/20 03:46:17;;;;;;;1.73;1.60;;;23.40;68.20;;;;;;5069998;28;20461;-50
2022/08/20 03:48:49;;;;;;;2.10;1.60;;;23.40;68.40;;;;;;5084901;28;20816;-50
2022/08/20 03:51:22;;;;;;;2.33;2.00;;;23.40;68.40;;;;;;5070477;28;20499;-50
2022/08/20 03:53:49;;;;;;;1.97;1.80;;;23.40;68.40;;;;;;5084003;28;20463;-50
2022/08/20 03:56:16;;;;;;;2.30;1.87;;;23.40;68.60;;;;;;5067303;28;20495;-50
2022/08/20 03:58:43;;;;;;;4.63;1.90;;;23.40;68.70;;;;;;5085170;28;21266;-50
2022/08/20 04:01:09;;;;;;;4.23;1.57;;;23.40;68.80;;;;;;5081482;28;20495;-50
2022/08/20 04:03:57;;;;;;;2.17;2.03;;;23.40;68.80;;;;;;5085652;28;20444;-50
2022/08/20 04:06:24;;;;;;;2.37;1.80;;;23.40;68.90;;;;;;5085369;28;20667;-50
2022/08/20 04:08:52;;;;;;;2.50;1.60;;;23.40;69.00;;;;;;5079394;28;20966;-50
2022/08/20 04:11:19;;;;;;;2.07;1.53;;;23.40;69.10;;;;;;5086840;28;21050;-50
2022/08/20 04:13:46;;;;;;;2.10;2.00;;;23.40;69.20;;;;;;5069664;28;20460;-50
2022/08/20 04:16:14;;;;;;;2.50;2.10;;;23.40;69.40;;;;;;5080279;28;20460;-50
2022/08/20 04:18:42;;;;;;;2.20;1.70;;;23.40;69.50;;;;;;5083286;28;20586;-50
2022/08/20 04:21:27;;;;;;;2.07;1.40;;;23.40;69.70;;;;;;5087053;28;20483;-50
2022/08/20 04:23:59;;;;;;;1.50;1.33;;;23.40;70.00;;;;;;5082647;28;20999;-50
2022/08/20 04:26:26;;;;;;;1.90;1.80;;;23.30;70.10;;;;;;5069631;28;20471;-50
2022/08/20 04:28:54;;;;;;;2.00;1.50;;;23.30;70.20;;;;;;5085838;28;20452;-50
2022/08/20 04:31:23;;;;;;;3.13;1.90;;;23.30;70.40;;;;;;5086693;28;20472;-50
2022/08/20 04:33:51;;;;;;;3.80;2.10;;;23.30;70.40;;;;;;5080929;28;20500;-50
2022/08/20 04:36:18;;;;;;;4.23;2.30;;;23.20;70.60;;;;;;5067621;28;20456;-50
2022/08/20 04:38:44;;;;;;;2.50;1.87;;;23.20;70.80;;;;;;5063600;28;20457;-50
2022/08/20 04:41:20;;;;;;;1.90;1.70;;;23.20;70.80;;;;;;5083408;28;20528;-50
2022/08/20 04:43:52;;;;;;;3.03;1.60;;;23.20;70.90;;;;;;5065993;28;20513;-50
2022/08/20 04:46:20;;;;;;;2.13;2.03;;;23.20;71.10;;;;;;5084139;28;20514;-50
2022/08/20 04:48:46;;;;;;;2.93;1.70;;;23.20;71.10;;;;;;5086340;28;20456;-50
2022/08/20 04:51:16;;;;;;;2.97;1.73;;;23.20;71.20;;;;;;5067955;28;20462;-50
2022/08/20 04:53:44;;;;;;;3.77;2.00;;;23.20;71.30;;;;;;5082323;28;20956;-50
2022/08/20 04:56:22;;;;;;;2.33;1.80;;;23.20;71.40;;;;;;5068815;28;20572;-50
2022/08/20 04:58:50;;;;;;;1.87;1.57;;;23.20;71.50;;;;;;5086552;28;20533;-50
2022/08/20 05:01:17;;;;;;;1.97;1.50;;;23.20;71.40;;;;;;5085590;28;20529;-50
2022/08/20 05:03:46;;;;;;;2.50;2.00;;;23.20;71.30;;;;;;5082740;28;20483;-50
2022/08/20 05:06:15;;;;;;;2.13;2.03;;;23.20;71.40;;;;;;5081973;28;20457;-50
2022/08/20 05:08:42;;;;;;;3.93;2.17;;;23.20;71.40;;;;;;5063191;28;20449;-50
2022/08/20 05:11:10;;;;;;;3.93;2.37;;;23.20;71.40;;;;;;5085089;28;20844;-50
2022/08/20 05:13:57;;;;;;;3.43;2.07;;;23.10;71.50;;;;;;5086414;28;20464;-50
2022/08/20 05:16:24;;;;;;;2.17;2.00;;;23.10;71.60;;;;;;5066286;28;20833;-50
2022/08/20 05:18:50;;;;;;;4.13;2.03;;;23.10;71.70;;;;;;5062889;28;20964;-50
2022/08/20 05:21:19;;;;;;;3.13;1.77;;;23.10;72.30;;;;;;5080920;28;20919;-49
2022/08/20 05:23:47;;;;;;;2.40;2.20;;;23.10;72.70;;;;;;5080782;28;20973;-49
2022/08/20 05:26:14;;;;;;;3.50;2.60;;;23.10;73.20;;;;;;5063144;28;20633;-50
2022/08/20 05:28:42;;;;;;;3.23;3.03;;;23.10;73.90;;;;;;5066061;28;20885;-49
2022/08/20 05:31:26;;;;;;;3.80;2.37;;;23.00;74.80;;;;;;5086722;28;20467;-49
2022/08/20 05:34:00;;;;;;;3.40;2.77;;;23.00;76.20;;;;;;5086013;28;20793;-50
2022/08/20 05:36:27;;;;;;;3.10;2.80;;;22.90;76.80;;;;;;5065569;28;20440;-50
2022/08/20 05:38:53;;;;;;;4.30;2.77;;;22.90;77.80;;;;;;5081471;28;20468;-49
2022/08/20 05:41:20;;;;;;;3.57;3.27;;;22.80;78.50;;;;;;5059974;28;20980;-50
2022/08/20 05:44:01;;;;;;;3.43;3.10;;;22.70;78.80;;;;;;5090710;28;20501;-46
2022/08/20 05:46:30;;;;;;;6.13;4.47;;;22.60;79.40;;;;;;5082065;28;20937;-46
2022/08/20 05:49:00;;;;;;;3.30;3.10;;;22.60;79.90;;;;;;5081765;28;20492;-45
2022/08/20 05:51:28;;;;;;;3.27;2.97;;;22.50;80.30;;;;;;5063685;28;20468;-50
2022/08/20 05:53:56;;;;;;;4.07;3.77;;;22.50;80.50;;;;;;5086303;28;20949;-50
2022/08/20 05:56:28;;;;;;;3.10;2.90;;;22.50;80.60;;;;;;5067560;28;20468;-50
2022/08/20 05:58:56;;;;;;;4.10;3.70;;;22.50;80.80;;;;;;5076915;28;20555;-49
2022/08/20 06:01:23;;;;;;;4.37;3.67;;;22.40;80.90;;;;;;5064356;28;20861;-49
2022/08/20 06:06:36;;;;;;;3.50;3.20;;;22.40;81.60;;;;;;5087323;28;20478;-49
2022/08/20 06:09:12;;;;;;;4.57;4.17;;;22.30;81.90;;;;;;5071631;28;20466;-49
2022/08/20 06:11:39;;;;;;;4.40;4.00;;;22.30;82.30;;;;;;5088626;28;20460;-49
2022/08/20 06:14:06;;;;;;;4.27;3.10;;;22.30;82.60;;;;;;5071069;28;20459;-49
2022/08/20 06:16:33;;;;;;;5.03;3.80;;;22.30;82.80;;;;;;5088781;28;20840;-49
2022/08/20 06:19:03;;;;;;;3.90;3.37;;;22.30;82.70;;;;;;5087410;28;20467;-49
2022/08/20 06:21:30;;;;;;;4.17;3.50;;;22.30;82.80;;;;;;5067237;28;20488;-50
2022/08/20 06:23:57;;;;;;;3.57;3.27;;;22.30;82.70;;;;;;5070249;28;20961;-49
2022/08/20 06:26:27;;;;;;;3.70;3.40;;;22.30;82.80;;;;;;5089870;28;20601;-49
2022/08/20 06:28:57;;;;;;;4.33;3.30;;;22.40;82.80;;;;;;5079081;28;20493;-49
2022/08/20 06:31:26;;;;;;;3.73;3.43;;;22.40;82.70;;;;;;5088185;28;20459;-49
2022/08/20 06:33:53;;;;;;;6.00;3.47;;;22.30;82.70;;;;;;5088754;28;20493;-49
2022/08/20 06:36:19;;;;;;;4.60;3.83;;;22.30;82.90;;;;;;5080390;28;20460;-49
2022/08/20 06:38:46;;;;;;;3.97;3.67;;;22.40;83.20;;;;;;5047918;28;20460;-49
2022/08/20 06:41:13;;;;;;;4.13;2.90;;;22.40;83.00;;;;;;5079708;28;21023;-49
2022/08/20 06:43:40;;;;;;;10.93;4.23;;;22.40;82.90;;;;;;5065472;28;20461;-49
2022/08/20 06:46:07;;;;;;;5.00;3.13;;;22.40;82.80;;;;;;5086599;28;20965;-49
2022/08/20 06:48:33;;;;;;;3.63;3.33;;;22.50;82.60;;;;;;5082892;28;20568;-50
2022/08/20 06:51:00;;;;;;;4.53;3.40;;;22.50;82.70;;;;;;5067740;28;20859;-49
2022/08/20 06:53:27;;;;;;;3.57;3.27;;;22.50;83.00;;;;;;5081753;28;20463;-49
2022/08/20 06:55:59;;;;;;;3.63;2.60;;;22.50;83.30;;;;;;5068744;28;20471;-49
2022/08/20 06:58:30;;;;;;;3.10;2.80;;;22.50;83.10;;;;;;5084640;28;20476;-50
2022/08/20 07:01:09;;;;;;;3.40;2.73;;;22.60;82.90;;;;;;5048341;28;20537;-49
2022/08/20 07:03:41;;;;;;;3.13;2.83;;;22.60;83.20;;;;;;5059130;28;20463;-49
2022/08/20 07:06:24;;;;;;;3.00;2.80;;;22.70;83.10;;;;;;5057711;28;20864;-50
2022/08/20 07:08:52;;;;;;;2.90;2.70;;;22.80;83.00;;;;;;5076004;28;20459;-50
2022/08/20 07:11:19;;;;;;;3.47;3.17;;;22.80;82.70;;;;;;5089633;28;20463;-49
2022/08/20 07:13:52;;;;;;;3.53;2.63;;;22.80;82.60;;;;;;5094406;28;20476;-46
2022/08/20 07:16:19;;;;;;;3.70;2.80;;;22.90;82.30;;;;;;5083935;28;20460;-46
2022/08/20 07:18:46;;;;;;;3.03;2.83;;;22.90;81.70;;;;;;5083430;28;20460;-46
2022/08/20 07:21:12;;;;;;;3.43;3.13;;;23.00;81.60;;;;;;5062478;28;20484;-46
2022/08/20 07:23:41;;;;;;;2.63;2.20;;;23.00;81.50;;;;;;5082122;28;20449;-46
2022/08/20 07:26:07;;;;;;;3.30;2.20;;;23.00;80.70;;;;;;5079942;28;20459;-49
2022/08/20 07:28:34;;;;;;;5.43;2.30;;;23.10;80.40;;;;;;5080822;28;20456;-50
2022/08/20 07:33:47;;;;;;;2.63;2.20;;;23.10;80.20;;;;;;5076412;28;20803;-50
2022/08/20 07:36:16;;;;;;;2.37;2.20;;;23.10;79.90;;;;;;5079380;28;20553;-49
2022/08/20 07:38:47;;;;;;;2.80;2.60;;;23.20;78.70;;;;;;5083709;28;20468;-50
2022/08/20 07:41:14;;;;;;;2.20;2.10;;;23.30;77.70;;;;;;5061514;28;20479;-50
2022/08/20 07:43:44;;;;;;;3.13;2.90;;;23.40;77.50;;;;;;5066340;28;20440;-49
2022/08/20 07:46:12;;;;;;;3.40;2.70;;;23.40;77.30;;;;;;5084033;28;20440;-47
2022/08/20 07:48:45;;;;;;;3.83;3.23;;;23.40;76.50;;;;;;5081398;28;20480;-47
2022/08/20 07:51:15;;;;;;;3.20;2.90;;;23.40;76.10;;;;;;5066834;28;20464;-46
2022/08/20 07:53:43;;;;;;;2.80;2.60;;;23.50;76.40;;;;;;5087980;28;20472;-46
2022/08/20 07:56:15;;;;;;;3.33;2.83;;;23.50;76.80;;;;;;5085546;28;20855;-46
2022/08/20 07:58:48;;;;;;;2.70;2.40;;;23.60;75.40;;;;;;5084744;28;20992;-47
2022/08/20 08:01:18;;;;;;;2.87;2.43;;;23.60;75.40;;;;;;5081613;28;20475;-46
2022/08/20 08:03:45;;;;;;;3.40;3.10;;;23.70;75.60;;;;;;5083144;28;20668;-46
2022/08/20 08:06:19;;;;;;;2.63;2.50;;;23.70;75.00;;;;;;5041983;28;1077126;-46
2022/08/20 08:08:57;;;;;;;2.70;2.50;;;23.70;74.70;;;;;;5063617;28;20456;-46
2022/08/20 08:11:24;;;;;;;2.97;2.77;;;23.70;74.50;;;;;;5067564;28;20727;-46
2022/08/20 08:13:50;;;;;;;3.27;2.37;;;23.70;74.70;;;;;;5086666;28;20456;-46
2022/08/20 08:16:17;;;;;;;3.50;2.57;;;23.70;74.60;;;;;;5067602;28;20456;-46
2022/08/20 08:18:55;;;;;;;2.30;2.00;;;23.70;74.30;;;;;;5083222;28;20680;-47
2022/08/20 08:21:22;;;;;;;2.77;2.57;;;23.80;73.90;;;;;;5061309;28;20487;-46
2022/08/20 08:23:49;;;;;;;3.47;3.17;;;23.80;73.70;;;;;;5083762;28;20457;-47
2022/08/20 08:26:16;;;;;;;3.23;2.63;;;23.80;74.00;;;;;;5088643;28;20457;-46
2022/08/20 08:28:45;;;;;;;3.03;2.73;;;23.80;74.10;;;;;;5068681;28;20482;-47
2022/08/20 08:31:13;;;;;;;2.80;2.60;;;23.80;73.50;;;;;;5083611;28;20507;-47
2022/08/20 08:33:40;;;;;;;2.90;2.50;;;23.90;72.60;;;;;;5076942;28;20885;-47
2022/08/20 08:36:13;;;;;;;3.10;2.80;;;23.90;72.40;;;;;;5079864;28;20484;-47
2022/08/20 08:38:43;;;;;;;2.80;2.60;;;23.90;72.40;;;;;;5080306;28;20979;-47
2022/08/20 08:41:19;;;;;;;2.80;2.53;;;24.00;72.30;;;;;;5062697;28;20456;-47
2022/08/20 08:43:51;;;;;;;2.40;2.20;;;24.00;72.10;;;;;;5058140;28;20948;-47
2022/08/20 08:46:24;;;;;;;2.60;2.27;;;24.10;71.90;;;;;;5080140;28;20524;-47
2022/08/20 08:48:55;;;;;;;2.47;2.27;;;24.10;71.50;;;;;;5059523;28;20448;-47
2022/08/20 08:52:21;;;;;;;2.53;2.37;;;24.20;71.50;;;;;;5060685;28;21036;-46
2022/08/20 08:54:52;;;;;;;3.13;2.50;;;24.20;71.40;;;;;;5049832;28;20464;-47
2022/08/20 08:57:19;;;;;;;2.13;1.93;;;24.30;71.00;;;;;;5061630;28;20488;-47
2022/08/20 08:59:56;;;;;;;3.13;2.03;;;24.40;70.40;;;;;;5083186;28;20463;-47
2022/08/20 09:02:31;;;;;;;2.30;2.10;;;24.50;69.50;;;;;;5079112;28;20483;-47
2022/08/20 09:05:00;;;;;;;1.97;1.87;;;24.50;69.40;;;;;;5074167;28;20484;-47
2022/08/20 09:07:31;;;;;;;2.40;2.20;;;24.60;69.20;;;;;;5056603;28;20468;-46
2022/08/20 09:09:59;;;;;;;2.63;1.93;;;24.80;68.70;;;;;;5084285;28;20837;-47
2022/08/20 09:12:26;;;;;;;2.07;1.87;;;25.00;67.90;;;;;;5075517;28;20465;-47
2022/08/20 09:14:53;;;;;;;2.27;1.67;;;25.10;66.70;;;;;;5075450;28;20456;-47
2022/08/20 09:17:21;;;;;;;2.03;1.83;;;25.10;66.70;;;;;;5074907;28;20452;-47
2022/08/20 09:19:50;;;;;;;1.70;1.60;;;25.10;66.30;;;;;;5079246;28;20447;-47
2022/08/20 09:22:20;;;;;;;1.53;1.43;;;25.10;65.90;;;;;;5057011;28;20499;-47
2022/08/20 09:24:48;;;;;;;2.00;1.70;;;25.10;65.30;;;;;;5056768;28;20448;-47
2022/08/20 09:27:14;;;;;;;2.30;1.63;;;25.20;65.00;;;;;;5077485;28;20465;-47
2022/08/20 09:29:41;;;;;;;1.57;1.30;;;25.20;65.10;;;;;;5062209;28;20479;-47
2022/08/20 09:32:09;;;;;;;1.60;1.43;;;25.20;64.60;;;;;;5079586;28;20475;-47
2022/08/20 09:34:38;;;;;;;1.60;1.50;;;25.40;64.20;;;;;;5076863;28;20468;-47
2022/08/20 09:37:05;;;;;;;1.13;1.03;;;25.60;63.50;;;;;;5075104;28;20452;-47
2022/08/20 09:39:32;;;;;;;1.50;1.40;;;25.70;62.90;;;;;;5081782;28;20457;-47
2022/08/20 09:42:29;;;;;;;0.70;0.67;;;25.70;60.80;;;;;;5082865;28;20562;-47
2022/08/20 09:44:57;;;;;;;1.20;1.10;;;25.70;60.20;;;;;;5080710;28;20472;-47
2022/08/20 09:47:24;;;;;;;0.80;0.80;;;25.70;59.40;;;;;;5081895;28;21502;-47
2022/08/20 09:49:51;;;;;;;0.90;0.80;;;25.70;59.50;;;;;;5077057;28;20460;-47
2022/08/20 09:52:30;;;;;;;2.83;0.97;;;25.80;59.60;;;;;;5085325;28;20956;-46
2022/08/20 09:55:00;;;;;;;1.23;0.90;;;26.00;58.80;;;;;;5060285;28;20451;-46
2022/08/20 09:57:29;;;;;;;0.70;0.70;;;26.20;57.90;;;;;;5084188;28;20519;-46
2022/08/20 10:00:03;;;;;;;1.23;0.67;;;26.50;57.80;;;;;;5081909;28;20460;-46
2022/08/20 10:02:29;;;;;;;0.60;0.60;;;26.60;56.00;;;;;;5082955;28;20487;-46
2022/08/20 10:04:56;;;;;;;0.67;0.67;;;26.60;56.40;;;;;;5082328;28;20468;-46
2022/08/20 10:07:23;;;;;;;1.00;0.80;;;26.60;56.30;;;;;;5085971;28;20443;-47
2022/08/20 10:09:50;;;;;;;0.63;0.50;;;26.70;56.20;;;;;;5082552;28;20443;-46
2022/08/20 10:12:16;;;;;;;0.87;0.87;;;26.90;55.60;;;;;;5067526;28;20929;-46
2022/08/20 10:14:43;;;;;;;0.50;0.50;;;27.10;55.10;;;;;;5059383;28;20847;-46
2022/08/20 10:17:09;;;;;;;1.00;0.60;;;27.30;54.10;;;;;;5065648;28;20966;-46
2022/08/20 10:19:36;;;;;;;0.50;0.50;;;27.50;51.90;;;;;;5064947;28;20463;-46
2022/08/20 10:22:04;;;;;;;0.80;0.33;;;27.60;51.00;;;;;;5066858;28;20487;-46
2022/08/20 10:24:31;;;;;;;0.53;0.40;;;27.60;51.60;;;;;;5085548;28;20444;-46
2022/08/20 10:26:59;;;;;;;0.50;0.40;;;27.60;52.00;;;;;;5071158;28;20288;-46
2022/08/20 10:29:27;;;;;;;0.70;0.40;;;27.50;51.80;;;;;;5085424;28;20432;-46
2022/08/20 10:31:55;;;;;;;0.47;0.37;;;27.30;52.00;;;;;;5084334;28;20456;-46
2022/08/20 10:34:23;;;;;;;0.50;0.40;;;27.20;51.70;;;;;;5083689;28;20828;-46
2022/08/20 10:36:50;;;;;;;0.60;0.50;;;27.10;52.40;;;;;;5083789;28;20447;-46
2022/08/20 10:39:17;;;;;;;0.57;0.47;;;27.00;52.50;;;;;;5086199;28;20946;-46
2022/08/20 10:41:43;;;;;;;0.57;0.40;;;26.90;52.70;;;;;;5088044;28;20439;-47
2022/08/20 10:44:10;;;;;;;0.50;0.40;;;26.90;53.10;;;;;;5083763;28;20964;-46
2022/08/20 10:46:37;;;;;;;0.60;0.40;;;26.90;53.20;;;;;;5067266;28;20451;-46
2022/08/20 10:49:04;;;;;;;0.40;0.37;;;26.90;52.30;;;;;;5083873;28;20526;-47
2022/08/20 10:51:30;;;;;;;0.50;0.43;;;27.00;52.00;;;;;;5070585;28;20456;-46
2022/08/20 10:53:58;;;;;;;1.70;0.43;;;27.10;52.10;;;;;;5084819;28;20459;-47
2022/08/20 10:56:25;;;;;;;1.77;0.50;;;27.20;51.90;;;;;;5087660;28;20460;-46
2022/08/20 10:58:52;;;;;;;0.70;0.30;;;27.30;51.60;;;;;;5088383;28;20205;-46
2022/08/20 11:01:19;;;;;;;1.17;0.40;;;27.30;51.90;;;;;;5088521;28;21059;-46
2022/08/20 11:03:59;;;;;;;0.40;0.40;;;27.30;51.50;;;;;;5087192;28;20313;-46
2022/08/20 11:06:26;;;;;;;0.40;0.30;;;27.20;52.40;;;;;;5089331;28;20452;-46
2022/08/20 11:08:52;;;;;;;0.53;0.40;;;27.10;52.30;;;;;;5070705;28;20440;-47
2022/08/20 11:11:22;;;;;;;0.80;0.40;;;27.00;52.00;;;;;;5088645;28;20815;-46
2022/08/20 11:13:49;;;;;;;0.80;0.40;;;26.90;52.10;;;;;;5087117;28;20806;-46
2022/08/20 11:16:16;;;;;;;1.90;0.43;;;26.90;51.40;;;;;;5089133;28;20824;-47
2022/08/20 11:18:42;;;;;;;1.70;0.50;;;26.90;52.00;;;;;;5068196;28;20479;-47
2022/08/20 11:21:13;;;;;;;0.57;0.53;;;26.80;52.30;;;;;;5089036;28;20456;-47
2022/08/20 11:23:40;;;;;;;1.33;0.50;;;26.80;52.40;;;;;;5087955;28;21173;-47
2022/08/20 11:26:07;;;;;;;1.03;0.40;;;26.80;52.50;;;;;;5088558;28;20916;-47
2022/08/20 11:28:34;;;;;;;0.50;0.50;;;26.80;52.70;;;;;;5067401;28;20452;-47
2022/08/20 11:31:01;;;;;;;0.40;0.40;;;26.80;52.40;;;;;;5085524;28;20453;-47
2022/08/20 11:33:28;;;;;;;2.20;0.53;;;26.70;52.20;;;;;;5068211;28;20468;-47
2022/08/20 11:35:55;;;;;;;0.60;0.50;;;26.70;52.00;;;;;;5066573;28;20502;-47
2022/08/20 11:38:21;;;;;;;0.50;0.40;;;26.70;51.50;;;;;;5062085;28;20447;-46
2022/08/20 11:40:48;;;;;;;0.57;0.37;;;26.70;52.20;;;;;;5086654;28;20456;-46
2022/08/20 11:43:15;;;;;;;0.47;0.40;;;26.70;52.60;;;;;;5086427;28;20495;-46
2022/08/20 11:45:46;;;;;;;0.50;0.50;;;26.70;52.80;;;;;;5069460;28;20464;-46
2022/08/20 11:48:13;;;;;;;1.00;0.47;;;26.60;52.80;;;;;;5057657;28;20475;-46
2022/08/20 11:50:40;;;;;;;0.63;0.63;;;26.70;52.50;;;;;;5086041;28;20988;-46
2022/08/20 11:53:06;;;;;;;0.57;0.50;;;26.70;52.30;;;;;;5069606;28;20459;-46
2022/08/20 11:55:34;;;;;;;2.30;0.83;;;26.70;52.70;;;;;;5084888;28;20452;-47
2022/08/20 11:58:01;;;;;;;0.70;0.53;;;26.70;52.70;;;;;;5062179;28;21030;-46
2022/08/20 12:00:30;;;;;;;0.97;0.80;;;26.60;52.40;;;;;;5080856;28;20477;-46
2022/08/20 12:03:04;;;;;;;0.90;0.90;;;26.60;52.10;;;;;;5087522;28;20488;-46
2022/08/20 12:05:35;;;;;;;1.60;1.07;;;26.70;52.00;;;;;;5084284;28;20470;-46
2022/08/20 12:08:02;;;;;;;1.10;0.70;;;26.70;51.40;;;;;;5066735;28;20942;-46
2022/08/20 12:10:29;;;;;;;1.67;0.60;;;26.70;51.60;;;;;;5088107;28;20455;-46
2022/08/20 12:12:56;;;;;;;0.70;0.70;;;26.70;51.90;;;;;;5066081;28;20468;-46
2022/08/20 12:15:25;;;;;;;0.80;0.80;;;26.70;51.90;;;;;;5084811;28;20878;-46
2022/08/20 12:17:52;;;;;;;1.20;1.10;;;26.70;52.00;;;;;;5087068;28;20441;-46
2022/08/20 12:20:19;;;;;;;1.43;1.00;;;26.70;51.80;;;;;;5086149;28;20487;-47
2022/08/20 12:22:46;;;;;;;0.90;0.90;;;26.70;51.40;;;;;;5087913;28;21087;-46
2022/08/20 12:25:12;;;;;;;1.23;1.13;;;26.70;51.00;;;;;;5089007;28;20447;-46
2022/08/20 12:27:40;;;;;;;1.40;1.10;;;26.70;50.50;;;;;;5064335;28;20970;-47
2022/08/20 12:30:11;;;;;;;1.13;0.90;;;26.80;49.40;;;;;;5063482;28;20468;-46
2022/08/20 12:32:38;;;;;;;1.70;1.20;;;26.70;49.70;;;;;;5077970;28;20464;-46
2022/08/20 12:35:06;;;;;;;2.03;1.20;;;26.70;49.70;;;;;;5078427;28;20460;-46
2022/08/20 12:37:33;;;;;;;1.27;1.17;;;26.70;49.50;;;;;;5087428;28;20498;-46
2022/08/20 12:40:04;;;;;;;1.17;0.90;;;26.70;49.60;;;;;;5085847;28;20440;-46
2022/08/20 12:42:31;;;;;;;0.80;0.70;;;26.80;49.50;;;;;;5086384;28;20500;-47
2022/08/20 12:44:58;;;;;;;1.40;1.30;;;26.90;48.90;;;;;;5081690;28;20531;-47
2022/08/20 12:47:29;;;;;;;1.63;1.33;;;26.90;48.50;;;;;;5070271;28;20468;-47
2022/08/20 12:49:59;;;;;;;1.40;1.30;;;27.00;48.10;;;;;;5085061;28;20980;-47
2022/08/20 12:52:28;;;;;;;3.30;1.70;;;26.90;47.90;;;;;;5068969;28;20460;-46
2022/08/20 12:54:55;;;;;;;2.30;1.40;;;26.90;47.70;;;;;;5085451;28;20803;-46
2022/08/20 12:57:49;;;;;;;3.00;1.60;;;26.90;48.00;;;;;;5085197;28;20484;-47
2022/08/20 13:00:22;;;;;;;1.13;1.00;;;26.90;45.80;;;;;;5081822;28;20976;-50
2022/08/20 13:02:51;;;;;;;1.60;1.50;;;26.80;46.80;;;;;;5062192;28;20491;-50